createdAt,value
2018-01-27T00:00:43.364Z,0
2018-01-27T00:01:42.666Z,0
2018-01-27T00:02:42.671Z,0
2018-01-27T00:03:42.935Z,0
2018-01-27T00:04:42.702Z,0
2018-01-27T00:05:42.974Z,0
2018-01-27T00:06:42.747Z,0
2018-01-27T00:07:43.003Z,0
2018-01-27T00:08:43.493Z,0
2018-01-27T00:09:43.005Z,0
2018-01-27T00:10:43.536Z,0
2018-01-27T00:11:42.803Z,0
2018-01-27T00:12:43.077Z,0
2018-01-27T00:13:43.586Z,0
2018-01-27T00:14:43.158Z,0
2018-01-27T00:15:43.381Z,0
2018-01-27T00:16:43.126Z,0
2018-01-27T00:17:42.910Z,0
2018-01-27T00:18:42.912Z,0
2018-01-27T00:19:43.430Z,0
2018-01-27T00:20:43.198Z,0
2018-01-27T00:21:43.543Z,0
2018-01-27T00:22:42.982Z,0
2018-01-27T00:23:43.751Z,0
2018-01-27T00:24:43.529Z,0
2018-01-27T00:25:42.785Z,0
2018-01-27T00:26:43.569Z,0
2018-01-27T00:27:43.569Z,0
2018-01-27T00:28:43.336Z,0
2018-01-27T00:29:43.354Z,0
2018-01-27T00:30:43.640Z,0
2018-01-27T00:31:43.643Z,0
2018-01-27T00:32:43.658Z,0
2018-01-27T00:33:43.448Z,0
2018-01-27T00:34:43.443Z,0
2018-01-27T00:35:43.461Z,0
2018-01-27T00:36:43.725Z,0
2018-01-27T00:37:43.510Z,0
2018-01-27T00:38:43.254Z,0
2018-01-27T00:39:43.780Z,0
2018-01-27T00:40:43.796Z,0
2018-01-27T00:41:43.560Z,0
2018-01-27T00:42:43.835Z,0
2018-01-27T00:43:43.858Z,0
2018-01-27T00:44:43.115Z,0
2018-01-27T00:45:43.632Z,0
2018-01-27T00:46:43.905Z,0
2018-01-27T00:47:43.672Z,0
2018-01-27T00:48:43.938Z,0
2018-01-27T00:49:43.982Z,0
2018-01-27T00:50:43.474Z,0
2018-01-27T00:51:43.494Z,0
2018-01-27T00:52:43.763Z,0
2018-01-27T00:53:43.776Z,0
2018-01-27T00:54:44.050Z,0
2018-01-27T00:55:43.816Z,0
2018-01-27T00:56:43.889Z,0
2018-01-27T00:57:44.347Z,0
2018-01-27T00:58:44.127Z,0
2018-01-27T00:59:43.651Z,0
2018-01-27T01:00:43.899Z,0
2018-01-27T01:01:44.174Z,0
2018-01-27T01:02:43.704Z,0
2018-01-27T01:03:44.218Z,0
2018-01-27T01:04:44.226Z,0
2018-01-27T01:05:43.990Z,0
2018-01-27T01:06:43.780Z,0
2018-01-27T01:07:44.332Z,0
2018-01-27T01:08:43.811Z,0
2018-01-27T01:09:43.825Z,0
2018-01-27T01:10:43.573Z,0
2018-01-27T01:11:44.099Z,0
2018-01-27T01:12:44.616Z,0
2018-01-27T01:13:44.130Z,0
2018-01-27T01:14:44.649Z,0
2018-01-27T01:15:44.164Z,0
2018-01-27T01:16:44.179Z,0
2018-01-27T01:17:44.442Z,0
2018-01-27T01:18:44.470Z,0
2018-01-27T01:19:43.979Z,0
2018-01-27T01:20:44.502Z,0
2018-01-27T01:21:44.769Z,0
2018-01-27T01:22:44.300Z,0
2018-01-27T01:23:44.299Z,0
2018-01-27T01:24:44.577Z,0
2018-01-27T01:25:44.595Z,0
2018-01-27T01:26:44.615Z,0
2018-01-27T01:27:44.377Z,0
2018-01-27T01:28:43.895Z,0
2018-01-27T01:29:44.666Z,0
2018-01-27T01:30:44.691Z,0
2018-01-27T01:31:44.702Z,0
2018-01-27T01:32:44.214Z,0
2018-01-27T01:33:44.983Z,0
2018-01-27T01:34:44.775Z,0
2018-01-27T01:35:44.770Z,0
2018-01-27T01:36:44.790Z,0
2018-01-27T01:37:44.817Z,0
2018-01-27T01:38:45.123Z,0
2018-01-27T01:39:44.853Z,0
2018-01-27T01:40:45.105Z,0
2018-01-27T01:41:44.394Z,0
2018-01-27T01:42:44.703Z,0
2018-01-27T01:43:45.171Z,0
2018-01-27T01:44:44.675Z,0
2018-01-27T01:45:44.441Z,0
2018-01-27T01:46:45.222Z,0
2018-01-27T01:47:45.232Z,0
2018-01-27T01:48:45.002Z,0
2018-01-27T01:49:44.770Z,0
2018-01-27T01:50:44.279Z,0
2018-01-27T01:51:44.797Z,0
2018-01-27T01:52:44.322Z,0
2018-01-27T01:53:44.585Z,0
2018-01-27T01:54:45.103Z,0
2018-01-27T01:55:45.121Z,0
2018-01-27T01:56:45.150Z,0
2018-01-27T01:57:44.904Z,0
2018-01-27T01:58:45.173Z,0
2018-01-27T01:59:44.693Z,0
2018-01-27T02:00:44.955Z,0
2018-01-27T02:01:44.989Z,0
2018-01-27T02:02:45.237Z,0
2018-01-27T02:03:45.268Z,0
2018-01-27T02:04:45.304Z,0
2018-01-27T02:05:45.054Z,0
2018-01-27T02:06:44.838Z,0
2018-01-27T02:07:45.582Z,0
2018-01-27T02:08:45.121Z,0
2018-01-27T02:09:45.116Z,0
2018-01-27T02:10:45.385Z,0
2018-01-27T02:11:45.151Z,0
2018-01-27T02:12:45.416Z,0
2018-01-27T02:13:45.691Z,0
2018-01-27T02:14:45.217Z,0
2018-01-27T02:15:45.473Z,0
2018-01-27T02:16:44.744Z,0
2018-01-27T02:17:45.522Z,0
2018-01-27T02:18:45.284Z,0
2018-01-27T02:19:45.300Z,0
2018-01-27T02:20:45.336Z,0
2018-01-27T02:21:45.329Z,0
2018-01-27T02:22:45.600Z,0
2018-01-27T02:23:45.867Z,0
2018-01-27T02:24:45.185Z,0
2018-01-27T02:25:45.157Z,0
2018-01-27T02:26:45.949Z,0
2018-01-27T02:27:45.187Z,0
2018-01-27T02:28:45.463Z,0
2018-01-27T02:29:45.979Z,0
2018-01-27T02:30:45.996Z,0
2018-01-27T02:31:45.775Z,0
2018-01-27T02:32:45.532Z,0
2018-01-27T02:33:46.076Z,0
2018-01-27T02:34:45.823Z,0
2018-01-27T02:35:45.850Z,0
2018-01-27T02:36:45.609Z,0
2018-01-27T02:37:45.872Z,0
2018-01-27T02:38:46.153Z,0
2018-01-27T02:39:45.402Z,0
2018-01-27T02:40:45.922Z,0
2018-01-27T02:41:45.690Z,0
2018-01-27T02:42:46.206Z,0
2018-01-27T02:43:45.981Z,0
2018-01-27T02:44:45.742Z,0
2018-01-27T02:45:45.760Z,0
2018-01-27T02:46:46.052Z,0
2018-01-27T02:47:45.814Z,0
2018-01-27T02:48:46.075Z,0
2018-01-27T02:49:46.383Z,0
2018-01-27T02:50:46.091Z,0
2018-01-27T02:51:45.861Z,0
2018-01-27T02:52:46.136Z,0
2018-01-27T02:53:46.424Z,0
2018-01-27T02:54:45.672Z,0
2018-01-27T02:55:45.431Z,0
2018-01-27T02:56:45.948Z,0
2018-01-27T02:57:45.976Z,0
2018-01-27T02:58:46.492Z,0
2018-01-27T02:59:45.499Z,0
2018-01-27T03:00:45.525Z,0
2018-01-27T03:01:45.536Z,0
2018-01-27T03:02:46.310Z,0
2018-01-27T03:03:46.070Z,0
2018-01-27T03:04:45.832Z,0
2018-01-27T03:05:46.361Z,0
2018-01-27T03:06:45.872Z,0
2018-01-27T03:07:46.394Z,0
2018-01-27T03:08:46.668Z,0
2018-01-27T03:09:46.190Z,0
2018-01-27T03:10:46.201Z,0
2018-01-27T03:11:46.465Z,0
2018-01-27T03:12:46.483Z,0
2018-01-27T03:13:46.564Z,0
2018-01-27T03:14:46.513Z,0
2018-01-27T03:15:46.535Z,0
2018-01-27T03:16:46.308Z,0
2018-01-27T03:17:46.567Z,0
2018-01-27T03:18:46.337Z,0
2018-01-27T03:19:46.858Z,0
2018-01-27T03:20:46.381Z,0
2018-01-27T03:21:46.394Z,0
2018-01-27T03:22:46.865Z,0
2018-01-27T03:23:46.184Z,0
2018-01-27T03:24:46.443Z,0
2018-01-27T03:25:46.235Z,0
2018-01-27T03:26:46.483Z,0
2018-01-27T03:27:47.022Z,0
2018-01-27T03:28:46.515Z,0
2018-01-27T03:29:46.533Z,0
2018-01-27T03:30:46.803Z,0
2018-01-27T03:31:46.574Z,0
2018-01-27T03:32:46.593Z,0
2018-01-27T03:33:47.109Z,0
2018-01-27T03:34:46.875Z,0
2018-01-27T03:35:46.437Z,0
2018-01-27T03:36:46.655Z,0
2018-01-27T03:37:46.171Z,0
2018-01-27T03:38:46.970Z,0
2018-01-27T03:39:46.464Z,0
2018-01-27T03:40:46.728Z,0
2018-01-27T03:41:46.998Z,0
2018-01-27T03:42:47.016Z,0
2018-01-27T03:43:47.037Z,0
2018-01-27T03:44:47.049Z,0
2018-01-27T03:45:46.839Z,0
2018-01-27T03:46:46.839Z,0
2018-01-27T03:47:47.362Z,0
2018-01-27T03:48:47.120Z,0
2018-01-27T03:49:47.421Z,0
2018-01-27T03:50:47.154Z,0
2018-01-27T03:51:46.919Z,0
2018-01-27T03:52:47.186Z,0
2018-01-27T03:53:46.955Z,0
2018-01-27T03:54:47.227Z,0
2018-01-27T03:55:47.241Z,0
2018-01-27T03:56:47.258Z,0
2018-01-27T03:57:47.028Z,0
2018-01-27T03:58:47.291Z,0
2018-01-27T03:59:47.063Z,0
2018-01-27T04:00:47.332Z,0
2018-01-27T04:01:47.346Z,0
2018-01-27T04:02:47.108Z,0
2018-01-27T04:03:47.382Z,0
2018-01-27T04:04:47.651Z,0
2018-01-27T04:05:47.165Z,0
2018-01-27T04:06:47.437Z,0
2018-01-27T04:07:47.197Z,0
2018-01-27T04:08:47.465Z,0
2018-01-27T04:09:47.488Z,0
2018-01-27T04:10:47.264Z,0
2018-01-27T04:11:47.023Z,0
2018-01-27T04:12:47.552Z,0
2018-01-27T04:13:47.305Z,0
2018-01-27T04:14:47.075Z,0
2018-01-27T04:15:47.597Z,0
2018-01-27T04:16:47.616Z,0
2018-01-27T04:17:47.876Z,0
2018-01-27T04:18:47.406Z,0
2018-01-27T04:19:47.676Z,0
2018-01-27T04:20:47.433Z,0
2018-01-27T04:21:47.200Z,0
2018-01-27T04:22:47.212Z,0
2018-01-27T04:23:47.984Z,0
2018-01-27T04:24:47.752Z,0
2018-01-27T04:25:47.264Z,0
2018-01-27T04:26:47.536Z,0
2018-01-27T04:27:47.803Z,0
2018-01-27T04:28:47.832Z,0
2018-01-27T04:29:47.834Z,0
2018-01-27T04:30:47.860Z,0
2018-01-27T04:31:48.120Z,0
2018-01-27T04:32:47.894Z,0
2018-01-27T04:33:47.690Z,0
2018-01-27T04:34:47.919Z,0
2018-01-27T04:35:48.196Z,0
2018-01-27T04:36:47.764Z,0
2018-01-27T04:37:47.722Z,0
2018-01-27T04:38:47.509Z,0
2018-01-27T04:39:48.013Z,0
2018-01-27T04:40:48.281Z,0
2018-01-27T04:41:48.296Z,0
2018-01-27T04:42:47.566Z,0
2018-01-27T04:43:47.834Z,0
2018-01-27T04:44:48.352Z,0
2018-01-27T04:45:47.614Z,0
2018-01-27T04:46:47.884Z,0
2018-01-27T04:47:47.696Z,0
2018-01-27T04:48:48.170Z,0
2018-01-27T04:49:48.437Z,0
2018-01-27T04:50:48.211Z,0
2018-01-27T04:51:47.988Z,0
2018-01-27T04:52:47.743Z,0
2018-01-27T04:53:48.507Z,0
2018-01-27T04:54:48.297Z,0
2018-01-27T04:55:48.045Z,0
2018-01-27T04:56:48.065Z,0
2018-01-27T04:57:48.081Z,0
2018-01-27T04:58:48.600Z,0
2018-01-27T04:59:48.117Z,0
2018-01-27T05:00:48.150Z,0
2018-01-27T05:01:48.154Z,0
2018-01-27T05:02:48.469Z,0
2018-01-27T05:03:47.934Z,0
2018-01-27T05:04:48.472Z,0
2018-01-27T05:05:48.231Z,0
2018-01-27T05:06:48.495Z,0
2018-01-27T05:07:47.771Z,0
2018-01-27T05:08:48.281Z,0
2018-01-27T05:09:48.295Z,0
2018-01-27T05:10:48.324Z,0
2018-01-27T05:11:48.094Z,0
2018-01-27T05:12:48.345Z,0
2018-01-27T05:13:48.921Z,0
2018-01-27T05:14:48.381Z,0
2018-01-27T05:15:48.399Z,0
2018-01-27T05:16:48.415Z,0
2018-01-27T05:17:48.452Z,0
2018-01-27T05:18:48.455Z,0
2018-01-27T05:19:48.716Z,0
2018-01-27T05:20:48.752Z,0
2018-01-27T05:21:49.010Z,0
2018-01-27T05:22:48.770Z,0
2018-01-27T05:23:48.303Z,0
2018-01-27T05:24:48.561Z,0
2018-01-27T05:25:48.822Z,0
2018-01-27T05:26:48.843Z,0
2018-01-27T05:27:48.364Z,0
2018-01-27T05:28:48.916Z,0
2018-01-27T05:29:49.184Z,0
2018-01-27T05:30:48.912Z,0
2018-01-27T05:31:48.679Z,0
2018-01-27T05:32:48.949Z,0
2018-01-27T05:33:48.969Z,0
2018-01-27T05:34:48.484Z,0
2018-01-27T05:35:48.740Z,0
2018-01-27T05:36:49.022Z,0
2018-01-27T05:37:49.343Z,0
2018-01-27T05:38:49.057Z,0
2018-01-27T05:39:49.338Z,0
2018-01-27T05:40:49.337Z,0
2018-01-27T05:41:49.366Z,0
2018-01-27T05:42:49.373Z,0
2018-01-27T05:43:48.888Z,0
2018-01-27T05:44:49.162Z,0
2018-01-27T05:45:48.943Z,0
2018-01-27T05:46:49.216Z,0
2018-01-27T05:47:49.213Z,0
2018-01-27T05:48:48.982Z,0
2018-01-27T05:49:49.488Z,0
2018-01-27T05:50:49.515Z,0
2018-01-27T05:51:49.034Z,0
2018-01-27T05:52:49.316Z,0
2018-01-27T05:53:49.069Z,0
2018-01-27T05:54:49.340Z,0
2018-01-27T05:55:49.598Z,0
2018-01-27T05:56:49.136Z,0
2018-01-27T05:57:49.136Z,0
2018-01-27T05:58:49.404Z,0
2018-01-27T05:59:49.169Z,0
2018-01-27T06:00:49.185Z,0
2018-01-27T06:01:49.210Z,0
2018-01-27T06:02:49.498Z,0
2018-01-27T06:03:49.742Z,0
2018-01-27T06:04:49.754Z,0
2018-01-27T06:05:49.529Z,0
2018-01-27T06:06:49.556Z,0
2018-01-27T06:07:49.064Z,0
2018-01-27T06:08:49.831Z,0
2018-01-27T06:09:49.849Z,0
2018-01-27T06:10:49.613Z,0
2018-01-27T06:11:49.380Z,0
2018-01-27T06:12:49.905Z,0
2018-01-27T06:13:49.432Z,0
2018-01-27T06:14:48.932Z,0
2018-01-27T06:15:49.707Z,0
2018-01-27T06:16:49.466Z,0
2018-01-27T06:17:49.782Z,0
2018-01-27T06:18:48.997Z,0
2018-01-27T06:19:49.769Z,0
2018-01-27T06:20:49.551Z,0
2018-01-27T06:21:49.813Z,0
2018-01-27T06:22:49.826Z,0
2018-01-27T06:23:49.595Z,0
2018-01-27T06:24:50.111Z,0
2018-01-27T06:25:49.880Z,0
2018-01-27T06:26:49.910Z,0
2018-01-27T06:27:49.963Z,0
2018-01-27T06:28:49.679Z,0
2018-01-27T06:29:49.955Z,0
2018-01-27T06:30:49.473Z,0
2018-01-27T06:31:49.479Z,0
2018-01-27T06:32:49.497Z,0
2018-01-27T06:33:49.772Z,0
2018-01-27T06:34:50.046Z,0
2018-01-27T06:35:50.303Z,0
2018-01-27T06:36:50.076Z,0
2018-01-27T06:37:49.830Z,0
2018-01-27T06:38:50.097Z,0
2018-01-27T06:39:49.870Z,0
2018-01-27T06:40:49.651Z,0
2018-01-27T06:41:50.172Z,0
2018-01-27T06:42:50.431Z,0
2018-01-27T06:43:50.193Z,0
2018-01-27T06:44:50.204Z,0
2018-01-27T06:45:50.479Z,0
2018-01-27T06:46:50.249Z,0
2018-01-27T06:47:50.507Z,0
2018-01-27T06:48:50.037Z,0
2018-01-27T06:49:50.550Z,0
2018-01-27T06:50:50.073Z,0
2018-01-27T06:51:50.077Z,0
2018-01-27T06:52:50.346Z,0
2018-01-27T06:53:50.361Z,0
2018-01-27T06:54:49.875Z,0
2018-01-27T06:55:50.180Z,0
2018-01-27T06:56:50.671Z,0
2018-01-27T06:57:50.432Z,0
2018-01-27T06:58:50.206Z,0
2018-01-27T06:59:50.469Z,0
2018-01-27T07:00:49.983Z,0
2018-01-27T07:01:49.746Z,0
2018-01-27T07:02:50.517Z,0
2018-01-27T07:03:50.539Z,0
2018-01-27T07:04:50.296Z,0
2018-01-27T07:05:50.571Z,5
2018-01-27T07:06:50.090Z,5
2018-01-27T07:07:50.856Z,5
2018-01-27T07:08:50.905Z,5
2018-01-27T07:09:50.386Z,5
2018-01-27T07:10:50.670Z,5
2018-01-27T07:11:50.180Z,5
2018-01-27T07:12:50.944Z,5
2018-01-27T07:13:50.469Z,5
2018-01-27T07:14:50.225Z,5
2018-01-27T07:15:50.496Z,5
2018-01-27T07:16:51.012Z,5
2018-01-27T07:17:50.034Z,5
2018-01-27T07:18:51.050Z,5
2018-01-27T07:19:50.812Z,5
2018-01-27T07:20:50.326Z,5
2018-01-27T07:21:51.099Z,5
2018-01-27T07:22:50.615Z,5
2018-01-27T07:23:50.896Z,5
2018-01-27T07:24:50.145Z,5
2018-01-27T07:25:50.416Z,5
2018-01-27T07:26:51.186Z,5
2018-01-27T07:27:50.197Z,5
2018-01-27T07:28:50.464Z,5
2018-01-27T07:29:51.015Z,5
2018-01-27T07:30:50.759Z,5
2018-01-27T07:31:50.778Z,5
2018-01-27T07:32:50.792Z,5
2018-01-27T07:33:50.805Z,10
2018-01-27T07:34:50.837Z,10
2018-01-27T07:35:50.844Z,10
2018-01-27T07:36:51.361Z,10
2018-01-27T07:37:50.875Z,10
2018-01-27T07:38:51.137Z,15
2018-01-27T07:39:50.658Z,15
2018-01-27T07:40:50.922Z,15
2018-01-27T07:41:51.202Z,15
2018-01-27T07:42:51.212Z,15
2018-01-27T07:43:51.228Z,15
2018-01-27T07:44:51.501Z,15
2018-01-27T07:45:51.031Z,15
2018-01-27T07:46:51.341Z,15
2018-01-27T07:47:51.334Z,15
2018-01-27T07:48:50.813Z,20
2018-01-27T07:49:51.336Z,20
2018-01-27T07:50:51.348Z,20
2018-01-27T07:51:51.377Z,20
2018-01-27T07:52:51.143Z,20
2018-01-27T07:53:51.407Z,20
2018-01-27T07:54:51.172Z,20
2018-01-27T07:55:51.432Z,20
2018-01-27T07:56:51.206Z,20
2018-01-27T07:57:51.219Z,20
2018-01-27T07:58:50.989Z,20
2018-01-27T07:59:51.505Z,20
2018-01-27T08:00:51.279Z,20
2018-01-27T08:01:51.788Z,20
2018-01-27T08:02:51.558Z,20
2018-01-27T08:03:51.829Z,25
2018-01-27T08:04:51.090Z,20
2018-01-27T08:05:51.366Z,20
2018-01-27T08:06:51.884Z,20
2018-01-27T08:07:51.394Z,20
2018-01-27T08:08:51.919Z,20
2018-01-27T08:09:51.427Z,20
2018-01-27T08:10:51.705Z,20
2018-01-27T08:11:51.456Z,20
2018-01-27T08:12:51.245Z,25
2018-01-27T08:13:52.002Z,25
2018-01-27T08:14:52.015Z,25
2018-01-27T08:15:51.531Z,25
2018-01-27T08:16:51.559Z,30
2018-01-27T08:17:51.819Z,30
2018-01-27T08:18:51.330Z,25
2018-01-27T08:19:52.099Z,25
2018-01-27T08:20:51.373Z,25
2018-01-27T08:21:51.890Z,25
2018-01-27T08:22:52.170Z,25
2018-01-27T08:23:51.919Z,25
2018-01-27T08:24:51.939Z,25
2018-01-27T08:25:51.453Z,25
2018-01-27T08:26:51.730Z,25
2018-01-27T08:27:51.740Z,25
2018-01-27T08:28:51.756Z,25
2018-01-27T08:29:52.294Z,30
2018-01-27T08:30:52.041Z,30
2018-01-27T08:31:52.068Z,30
2018-01-27T08:32:52.094Z,35
2018-01-27T08:33:52.092Z,35
2018-01-27T08:34:52.366Z,35
2018-01-27T08:35:51.898Z,35
2018-01-27T08:36:51.896Z,40
2018-01-27T08:37:51.914Z,40
2018-01-27T08:38:51.926Z,40
2018-01-27T08:39:51.970Z,40
2018-01-27T08:40:52.472Z,45
2018-01-27T08:41:52.236Z,50
2018-01-27T08:42:52.003Z,50
2018-01-27T08:43:52.020Z,50
2018-01-27T08:44:52.329Z,45
2018-01-27T08:45:52.559Z,45
2018-01-27T08:46:51.821Z,45
2018-01-27T08:47:52.341Z,45
2018-01-27T08:48:52.620Z,50
2018-01-27T08:49:52.393Z,50
2018-01-27T08:50:52.391Z,55
2018-01-27T08:51:52.162Z,55
2018-01-27T08:52:52.681Z,50
2018-01-27T08:53:51.938Z,50
2018-01-27T08:54:51.958Z,50
2018-01-27T08:55:52.477Z,50
2018-01-27T08:56:52.518Z,50
2018-01-27T08:57:52.260Z,50
2018-01-27T08:58:52.793Z,50
2018-01-27T08:59:52.045Z,50
2018-01-27T09:00:52.566Z,50
2018-01-27T09:01:52.583Z,50
2018-01-27T09:02:52.371Z,50
2018-01-27T09:03:52.367Z,55
2018-01-27T09:04:52.639Z,55
2018-01-27T09:05:52.658Z,60
2018-01-27T09:06:52.429Z,60
2018-01-27T09:07:52.692Z,60
2018-01-27T09:08:52.751Z,65
2018-01-27T09:09:52.495Z,65
2018-01-27T09:10:52.485Z,70
2018-01-27T09:11:53.008Z,70
2018-01-27T09:12:52.537Z,75
2018-01-27T09:13:52.797Z,75
2018-01-27T09:14:52.052Z,75
2018-01-27T09:15:52.065Z,75
2018-01-27T09:16:52.659Z,75
2018-01-27T09:17:52.866Z,75
2018-01-27T09:18:52.931Z,75
2018-01-27T09:19:52.899Z,75
2018-01-27T09:20:52.414Z,75
2018-01-27T09:21:52.926Z,80
2018-01-27T09:22:52.967Z,80
2018-01-27T09:23:52.978Z,80
2018-01-27T09:24:52.732Z,75
2018-01-27T09:25:53.251Z,75
2018-01-27T09:26:52.523Z,70
2018-01-27T09:27:53.039Z,65
2018-01-27T09:28:52.813Z,65
2018-01-27T09:29:52.318Z,65
2018-01-27T09:30:52.851Z,65
2018-01-27T09:31:52.356Z,65
2018-01-27T09:32:53.375Z,70
2018-01-27T09:33:53.398Z,65
2018-01-27T09:34:52.652Z,65
2018-01-27T09:35:52.945Z,65
2018-01-27T09:36:52.684Z,70
2018-01-27T09:37:52.968Z,75
2018-01-27T09:38:52.473Z,80
2018-01-27T09:39:53.010Z,90
2018-01-27T09:40:52.759Z,90
2018-01-27T09:41:53.282Z,95
2018-01-27T09:42:53.042Z,100
2018-01-27T09:43:53.317Z,100
2018-01-27T09:44:53.080Z,100
2018-01-27T09:45:53.120Z,100
2018-01-27T09:46:52.626Z,100
2018-01-27T09:47:53.730Z,105
2018-01-27T09:48:53.651Z,105
2018-01-27T09:49:53.167Z,105
2018-01-27T09:50:53.186Z,110
2018-01-27T09:51:53.726Z,110
2018-01-27T09:52:53.469Z,115
2018-01-27T09:53:53.506Z,115
2018-01-27T09:54:53.011Z,120
2018-01-27T09:55:53.790Z,125
2018-01-27T09:56:53.805Z,130
2018-01-27T09:57:53.308Z,140
2018-01-27T09:58:53.337Z,145
2018-01-27T09:59:53.348Z,145
2018-01-27T10:00:52.860Z,155
2018-01-27T10:01:53.635Z,160
2018-01-27T10:02:53.664Z,160
2018-01-27T10:03:53.922Z,160
2018-01-27T10:04:53.786Z,160
2018-01-27T10:05:53.962Z,155
2018-01-27T10:06:53.223Z,150
2018-01-27T10:07:53.745Z,150
2018-01-27T10:08:53.533Z,150
2018-01-27T10:09:53.779Z,145
2018-01-27T10:10:53.798Z,145
2018-01-27T10:11:53.076Z,145
2018-01-27T10:12:53.590Z,140
2018-01-27T10:13:53.601Z,135
2018-01-27T10:14:53.630Z,130
2018-01-27T10:15:54.160Z,125
2018-01-27T10:16:53.937Z,125
2018-01-27T10:17:53.923Z,125
2018-01-27T10:18:53.946Z,125
2018-01-27T10:19:53.710Z,130
2018-01-27T10:20:53.733Z,135
2018-01-27T10:21:53.799Z,140
2018-01-27T10:22:53.770Z,145
2018-01-27T10:23:54.043Z,145
2018-01-27T10:24:54.057Z,145
2018-01-27T10:25:53.829Z,145
2018-01-27T10:26:54.364Z,145
2018-01-27T10:28:08.785Z,145
2018-01-27T10:28:53.878Z,145
2018-01-27T10:29:54.419Z,145
2018-01-27T10:30:54.458Z,140
2018-01-27T10:31:53.940Z,135
2018-01-27T10:32:54.205Z,130
2018-01-27T10:33:54.487Z,125
2018-01-27T10:34:54.545Z,125
2018-01-27T10:35:54.018Z,130
2018-01-27T10:36:54.536Z,130
2018-01-27T10:37:54.296Z,135
2018-01-27T10:38:54.566Z,145
2018-01-27T10:39:54.595Z,150
2018-01-27T10:40:54.359Z,160
2018-01-27T10:41:54.374Z,170
2018-01-27T10:42:54.402Z,190
2018-01-27T10:43:54.419Z,205
2018-01-27T10:44:54.453Z,220
2018-01-27T10:45:53.953Z,240
2018-01-27T10:46:54.727Z,250
2018-01-27T10:47:54.533Z,250
2018-01-27T10:48:54.261Z,235
2018-01-27T10:49:54.780Z,215
2018-01-27T10:50:54.291Z,210
2018-01-27T10:51:54.323Z,205
2018-01-27T10:52:54.595Z,200
2018-01-27T10:53:54.608Z,190
2018-01-27T10:54:54.626Z,180
2018-01-27T10:55:54.142Z,180
2018-01-27T10:56:54.653Z,170
2018-01-27T10:57:54.929Z,150
2018-01-27T10:58:54.709Z,155
2018-01-27T10:59:54.969Z,150
2018-01-27T11:00:54.755Z,140
2018-01-27T11:01:54.759Z,150
2018-01-27T11:02:55.026Z,150
2018-01-27T11:03:55.116Z,150
2018-01-27T11:04:54.570Z,145
2018-01-27T11:05:55.087Z,130
2018-01-27T11:06:54.862Z,115
2018-01-27T11:07:54.436Z,110
2018-01-27T11:08:54.650Z,110
2018-01-27T11:09:54.408Z,95
2018-01-27T11:10:54.427Z,90
2018-01-27T11:11:54.718Z,90
2018-01-27T11:12:54.717Z,95
2018-01-27T11:13:54.493Z,100
2018-01-27T11:14:54.503Z,95
2018-01-27T11:15:55.040Z,95
2018-01-27T11:16:55.052Z,100
2018-01-27T11:17:54.813Z,110
2018-01-27T11:18:54.584Z,105
2018-01-27T11:19:55.105Z,100
2018-01-27T11:20:55.382Z,105
2018-01-27T11:21:55.142Z,115
2018-01-27T11:22:55.241Z,125
2018-01-27T11:23:54.696Z,130
2018-01-27T11:24:55.539Z,130
2018-01-27T11:25:54.968Z,135
2018-01-27T11:26:54.738Z,135
2018-01-27T11:27:55.257Z,135
2018-01-27T11:28:55.032Z,135
2018-01-27T11:29:55.055Z,140
2018-01-27T11:30:55.335Z,140
2018-01-27T11:31:55.344Z,145
2018-01-27T11:32:54.858Z,150
2018-01-27T11:33:54.874Z,150
2018-01-27T11:34:55.165Z,150
2018-01-27T11:35:55.419Z,145
2018-01-27T11:36:55.451Z,145
2018-01-27T11:37:55.203Z,145
2018-01-27T11:38:55.234Z,125
2018-01-27T11:39:55.322Z,120
2018-01-27T11:40:55.264Z,120
2018-01-27T11:41:55.287Z,130
2018-01-27T11:42:55.802Z,140
2018-01-27T11:43:55.317Z,145
2018-01-27T11:44:54.833Z,145
2018-01-27T11:46:10.036Z,145
2018-01-27T11:46:55.628Z,145
2018-01-27T11:47:55.396Z,145
2018-01-27T11:48:55.666Z,145
2018-01-27T11:49:55.685Z,145
2018-01-27T11:50:55.705Z,145
2018-01-27T11:51:55.472Z,150
2018-01-27T11:52:55.493Z,150
2018-01-27T11:53:55.771Z,150
2018-01-27T11:54:55.538Z,155
2018-01-27T11:55:56.056Z,160
2018-01-27T11:56:55.833Z,160
2018-01-27T11:57:55.589Z,165
2018-01-27T11:58:55.627Z,165
2018-01-27T11:59:55.625Z,160
2018-01-27T12:00:55.395Z,155
2018-01-27T12:01:55.410Z,150
2018-01-27T12:02:55.926Z,145
2018-01-27T12:03:55.953Z,145
2018-01-27T12:04:55.981Z,145
2018-01-27T12:05:56.241Z,145
2018-01-27T12:06:56.015Z,145
2018-01-27T12:07:55.781Z,145
2018-01-27T12:08:55.550Z,145
2018-01-27T12:09:56.330Z,145
2018-01-27T12:10:56.435Z,145
2018-01-27T12:11:55.857Z,145
2018-01-27T12:12:55.873Z,145
2018-01-27T12:13:56.160Z,140
2018-01-27T12:14:55.655Z,140
2018-01-27T12:15:55.934Z,135
2018-01-27T12:16:56.465Z,130
2018-01-27T12:17:55.964Z,125
2018-01-27T12:18:55.985Z,120
2018-01-27T12:19:56.256Z,115
2018-01-27T12:20:56.497Z,110
2018-01-27T12:21:55.808Z,115
2018-01-27T12:22:56.073Z,115
2018-01-27T12:23:56.084Z,115
2018-01-27T12:24:56.367Z,115
2018-01-27T12:25:56.369Z,115
2018-01-27T12:26:56.142Z,110
2018-01-27T12:27:56.426Z,105
2018-01-27T12:28:56.447Z,105
2018-01-27T12:29:55.943Z,105
2018-01-27T12:30:56.220Z,105
2018-01-27T12:31:56.231Z,100
2018-01-27T12:32:56.503Z,95
2018-01-27T12:33:56.538Z,90
2018-01-27T12:34:56.791Z,85
2018-01-27T12:35:56.559Z,80
2018-01-27T12:36:56.073Z,80
2018-01-27T12:37:56.917Z,80
2018-01-27T12:38:56.876Z,85
2018-01-27T12:39:56.644Z,90
2018-01-27T12:40:56.723Z,90
2018-01-27T12:41:56.200Z,95
2018-01-27T12:42:56.727Z,95
2018-01-27T12:43:56.709Z,100
2018-01-27T12:44:56.731Z,105
2018-01-27T12:45:56.508Z,110
2018-01-27T12:46:56.783Z,120
2018-01-27T12:47:56.804Z,130
2018-01-27T12:48:56.559Z,135
2018-01-27T12:49:56.079Z,135
2018-01-27T12:50:56.353Z,140
2018-01-27T12:51:56.383Z,140
2018-01-27T12:52:56.622Z,135
2018-01-27T12:53:56.668Z,135
2018-01-27T12:54:56.661Z,135
2018-01-27T12:55:56.681Z,140
2018-01-27T12:56:56.963Z,145
2018-01-27T12:57:56.210Z,145
2018-01-27T12:58:56.992Z,145
2018-01-27T12:59:56.767Z,155
2018-01-27T13:00:57.094Z,165
2018-01-27T13:01:56.835Z,175
2018-01-27T13:02:56.335Z,190
2018-01-27T13:03:56.588Z,205
2018-01-27T13:04:57.368Z,215
2018-01-27T13:05:57.368Z,215
2018-01-27T13:06:57.425Z,205
2018-01-27T13:07:57.198Z,195
2018-01-27T13:08:57.448Z,195
2018-01-27T13:09:57.205Z,205
2018-01-27T13:10:56.972Z,215
2018-01-27T13:11:56.975Z,235
2018-01-27T13:12:56.741Z,240
2018-01-27T13:13:56.762Z,235
2018-01-27T13:14:57.131Z,215
2018-01-27T13:15:57.358Z,190
2018-01-27T13:16:57.100Z,180
2018-01-27T13:17:57.378Z,180
2018-01-27T13:18:57.116Z,185
2018-01-27T13:19:57.133Z,190
2018-01-27T13:20:57.429Z,185
2018-01-27T13:21:57.452Z,180
2018-01-27T13:22:57.450Z,170
2018-01-27T13:23:57.504Z,165
2018-01-27T13:24:57.486Z,165
2018-01-27T13:25:57.506Z,170
2018-01-27T13:26:57.279Z,175
2018-01-27T13:27:57.809Z,180
2018-01-27T13:28:57.586Z,175
2018-01-27T13:29:57.352Z,170
2018-01-27T13:30:57.363Z,170
2018-01-27T13:31:57.628Z,170
2018-01-27T13:32:57.632Z,175
2018-01-27T13:33:57.684Z,180
2018-01-27T13:34:57.970Z,185
2018-01-27T13:35:57.448Z,185
2018-01-27T13:36:57.456Z,180
2018-01-27T13:37:57.737Z,175
2018-01-27T13:38:58.019Z,175
2018-01-27T13:39:57.802Z,175
2018-01-27T13:40:57.828Z,175
2018-01-27T13:41:57.829Z,175
2018-01-27T13:42:58.085Z,175
2018-01-27T13:43:57.845Z,170
2018-01-27T13:44:57.891Z,165
2018-01-27T13:45:57.682Z,155
2018-01-27T13:46:57.690Z,150
2018-01-27T13:47:57.679Z,150
2018-01-27T13:48:57.718Z,145
2018-01-27T13:49:57.712Z,140
2018-01-27T13:50:57.973Z,140
2018-01-27T13:51:58.028Z,140
2018-01-27T13:52:57.798Z,145
2018-01-27T13:53:57.831Z,145
2018-01-27T13:54:58.134Z,145
2018-01-27T13:55:58.343Z,145
2018-01-27T13:56:58.099Z,145
2018-01-27T13:57:58.118Z,145
2018-01-27T13:58:57.888Z,145
2018-01-27T13:59:58.395Z,145
2018-01-27T14:00:57.923Z,150
2018-01-27T14:01:58.229Z,155
2018-01-27T14:02:58.456Z,160
2018-01-27T14:03:57.975Z,160
2018-01-27T14:04:57.993Z,160
2018-01-27T14:05:58.569Z,155
2018-01-27T14:06:58.375Z,160
2018-01-27T14:07:57.823Z,160
2018-01-27T14:08:58.086Z,155
2018-01-27T14:09:58.116Z,145
2018-01-27T14:10:58.393Z,140
2018-01-27T14:11:58.148Z,130
2018-01-27T14:12:58.400Z,125
2018-01-27T14:13:58.415Z,120
2018-01-27T14:14:58.438Z,115
2018-01-27T14:15:58.722Z,115
2018-01-27T14:16:58.279Z,110
2018-01-27T14:17:58.248Z,110
2018-01-27T14:18:58.347Z,115
2018-01-27T14:19:58.812Z,120
2018-01-27T14:20:58.333Z,125
2018-01-27T14:21:58.633Z,125
2018-01-27T14:22:58.628Z,130